sensor_id;sensor_type;location;lat;lon;timestamp;pressure;altitude;pressure_sealevel;temperature;humidity
7052;BME280;3567;52.444;13.556;2022-10-16T00:01:46;100763.00;;;14.08;100.00
7052;BME280;3567;52.444;13.556;2022-10-16T00:04:12;100763.00;;;14.08;100.00
7052;BME280;3567;52.444;13.556;2022-10-16T00:06:38;100769.69;;;14.06;100.00
7052;BME280;3567;52.444;13.556;2022-10-16T00:09:04;100772.63;;;14.04;100.00
7052;BME280;3567;52.444;13.556;2022-10-16T00:11:34;100781.78;;;14.03;100.00
7052;BME280;3567;52.444;13.556;2022-10-16T00:14:04;100787.72;;;14.05;100.00
7052;BME280;3567;52.444;13.556;2022-10-16T00:16:31;100785.59;;;14.07;100.00
7052;BME280;3567;52.444;13.556;2022-10-16T00:18:56;100784.28;;;14.10;100.00
7052;BME280;3567;52.444;13.556;2022-10-16T00:21:25;100792.13;;;14.11;100.00
7052;BME280;3567;52.444;13.556;2022-10-16T00:23:52;100784.59;;;14.13;100.00
7052;BME280;3567;52.444;13.556;2022-10-16T00:26:19;100787.03;;;14.15;100.00
7052;BME280;3567;52.444;13.556;2022-10-16T00:28:46;100787.03;;;14.15;100.00
7052;BME280;3567;52.444;13.556;2022-10-16T00:31:12;100785.97;;;14.16;100.00
7052;BME280;3567;52.444;13.556;2022-10-16T00:33:39;100798.13;;;14.19;100.00
7052;BME280;3567;52.444;13.556;2022-10-16T00:36:06;100800.84;;;14.19;100.00
7052;BME280;3567;52.444;13.556;2022-10-16T00:38:32;100805.97;;;14.20;100.00
7052;BME280;3567;52.444;13.556;2022-10-16T00:40:58;100802.78;;;14.23;100.00
7052;BME280;3567;52.444;13.556;2022-10-16T00:43:43;100805.22;;;14.25;100.00
7052;BME280;3567;52.444;13.556;2022-10-16T00:46:19;100815.50;;;14.28;100.00
7052;BME280;3567;52.444;13.556;2022-10-16T00:48:52;100801.25;;;14.32;100.00
7052;BME280;3567;52.444;13.556;2022-10-16T00:51:23;100801.03;;;14.34;100.00
7052;BME280;3567;52.444;13.556;2022-10-16T00:53:50;100800.75;;;14.35;100.00
7052;BME280;3567;52.444;13.556;2022-10-16T00:56:17;100802.66;;;14.35;100.00
7052;BME280;3567;52.444;13.556;2022-10-16T00:58:43;100808.59;;;14.37;100.00
7052;BME280;3567;52.444;13.556;2022-10-16T01:01:08;100807.78;;;14.36;100.00
7052;BME280;3567;52.444;13.556;2022-10-16T01:03:35;100806.41;;;14.34;100.00
7052;BME280;3567;52.444;13.556;2022-10-16T01:06:10;100805.34;;;14.35;100.00
7052;BME280;3567;52.444;13.556;2022-10-16T01:09:06;100805.34;;;14.35;100.00
7052;BME280;3567;52.444;13.556;2022-10-16T01:14:48;100814.50;;;14.34;100.00
7052;BME280;3567;52.444;13.556;2022-10-16T01:17:27;100803.66;;;14.29;100.00
7052;BME280;3567;52.444;13.556;2022-10-16T01:22:50;100807.22;;;14.12;100.00
7052;BME280;3567;52.444;13.556;2022-10-16T01:28:11;100814.44;;;14.07;100.00
7052;BME280;3567;52.444;13.556;2022-10-16T01:30:40;100818.94;;;14.01;100.00
7052;BME280;3567;52.444;13.556;2022-10-16T01:33:12;100821.50;;;13.91;100.00
7052;BME280;3567;52.444;13.556;2022-10-16T01:35:43;100826.72;;;13.81;100.00
7052;BME280;3567;52.444;13.556;2022-10-16T01:40:50;100830.97;;;13.77;100.00
7052;BME280;3567;52.444;13.556;2022-10-16T01:43:24;100834.72;;;13.76;100.00
7052;BME280;3567;52.444;13.556;2022-10-16T01:45:52;100828.53;;;13.75;100.00
7052;BME280;3567;52.444;13.556;2022-10-16T01:48:18;100832.84;;;13.76;100.00
7052;BME280;3567;52.444;13.556;2022-10-16T01:50:56;100836.91;;;13.79;100.00
7052;BME280;3567;52.444;13.556;2022-10-16T01:53:22;100844.50;;;13.82;100.00
7052;BME280;3567;52.444;13.556;2022-10-16T01:55:49;100842.44;;;13.89;100.00
7052;BME280;3567;52.444;13.556;2022-10-16T01:58:17;100840.63;;;13.95;100.00
7052;BME280;3567;52.444;13.556;2022-10-16T02:00:44;100847.97;;;13.99;100.00
7052;BME280;3567;52.444;13.556;2022-10-16T02:03:13;100853.44;;;14.04;100.00
7052;BME280;3567;52.444;13.556;2022-10-16T02:05:53;100850.25;;;14.07;100.00
7052;BME280;3567;52.444;13.556;2022-10-16T02:08:20;100854.91;;;14.12;100.00
7052;BME280;3567;52.444;13.556;2022-10-16T02:10:47;100851.44;;;14.16;100.00
7052;BME280;3567;52.444;13.556;2022-10-16T02:13:30;100861.25;;;14.23;100.00
7052;BME280;3567;52.444;13.556;2022-10-16T02:15:57;100863.69;;;14.24;100.00
7052;BME280;3567;52.444;13.556;2022-10-16T02:18:23;100863.41;;;14.26;100.00
7052;BME280;3567;52.444;13.556;2022-10-16T02:21:19;100867.50;;;14.28;100.00
7052;BME280;3567;52.444;13.556;2022-10-16T02:23:51;100863.47;;;14.31;100.00
7052;BME280;3567;52.444;13.556;2022-10-16T02:26:27;100870.81;;;14.35;100.00
7052;BME280;3567;52.444;13.556;2022-10-16T02:29:00;100877.34;;;14.39;100.00
7052;BME280;3567;52.444;13.556;2022-10-16T02:31:28;100873.91;;;14.44;100.00
7052;BME280;3567;52.444;13.556;2022-10-16T02:33:58;100857.84;;;14.49;100.00
7052;BME280;3567;52.444;13.556;2022-10-16T02:36:25;100847.34;;;14.53;100.00
7052;BME280;3567;52.444;13.556;2022-10-16T02:38:51;100844.97;;;14.56;100.00
7052;BME280;3567;52.444;13.556;2022-10-16T02:41:18;100854.69;;;14.57;100.00
7052;BME280;3567;52.444;13.556;2022-10-16T02:43:43;100863.31;;;14.59;100.00
7052;BME280;3567;52.444;13.556;2022-10-16T02:46:09;100863.91;;;14.61;100.00
7052;BME280;3567;52.444;13.556;2022-10-16T02:48:34;100868.69;;;14.59;100.00
7052;BME280;3567;52.444;13.556;2022-10-16T02:51:00;100870.91;;;14.62;100.00
7052;BME280;3567;52.444;13.556;2022-10-16T02:53:26;100864.22;;;14.65;100.00
7052;BME280;3567;52.444;13.556;2022-10-16T02:55:51;100860.44;;;14.66;100.00
7052;BME280;3567;52.444;13.556;2022-10-16T02:58:16;100875.28;;;14.68;100.00
7052;BME280;3567;52.444;13.556;2022-10-16T03:00:42;100873.19;;;14.71;100.00
7052;BME280;3567;52.444;13.556;2022-10-16T03:03:07;100885.59;;;14.72;100.00
7052;BME280;3567;52.444;13.556;2022-10-16T03:05:33;100884.78;;;14.71;100.00
7052;BME280;3567;52.444;13.556;2022-10-16T03:07:58;100880.19;;;14.72;100.00
7052;BME280;3567;52.444;13.556;2022-10-16T03:10:26;100883.69;;;14.72;100.00
7052;BME280;3567;52.444;13.556;2022-10-16T03:12:51;100879.59;;;14.70;100.00
7052;BME280;3567;52.444;13.556;2022-10-16T03:15:16;100895.22;;;14.67;100.00
7052;BME280;3567;52.444;13.556;2022-10-16T03:17:42;100900.06;;;14.65;100.00
7052;BME280;3567;52.444;13.556;2022-10-16T03:20:08;100905.47;;;14.65;100.00
7052;BME280;3567;52.444;13.556;2022-10-16T03:22:33;100915.66;;;14.63;100.00
7052;BME280;3567;52.444;13.556;2022-10-16T03:24:59;100914.03;;;14.62;100.00
7052;BME280;3567;52.444;13.556;2022-10-16T03:27:24;100907.84;;;14.62;100.00
7052;BME280;3567;52.444;13.556;2022-10-16T03:29:50;100890.28;;;14.59;100.00
7052;BME280;3567;52.444;13.556;2022-10-16T03:32:15;100898.63;;;14.58;100.00
7052;BME280;3567;52.444;13.556;2022-10-16T03:34:41;100904.75;;;14.53;100.00
7052;BME280;3567;52.444;13.556;2022-10-16T03:37:06;100912.28;;;14.51;100.00
7052;BME280;3567;52.444;13.556;2022-10-16T03:39:31;100917.13;;;14.49;100.00
7052;BME280;3567;52.444;13.556;2022-10-16T03:41:57;100915.69;;;14.47;100.00
7052;BME280;3567;52.444;13.556;2022-10-16T03:44:22;100918.41;;;14.47;100.00
7052;BME280;3567;52.444;13.556;2022-10-16T03:46:48;100921.59;;;14.44;100.00
7052;BME280;3567;52.444;13.556;2022-10-16T03:49:13;100926.16;;;14.43;100.00
7052;BME280;3567;52.444;13.556;2022-10-16T03:51:38;100929.91;;;14.42;100.00
7052;BME280;3567;52.444;13.556;2022-10-16T03:54:04;100935.31;;;14.42;100.00
7052;BME280;3567;52.444;13.556;2022-10-16T03:56:29;100935.31;;;14.42;100.00
7052;BME280;3567;52.444;13.556;2022-10-16T03:58:55;100941.78;;;14.41;100.00
7052;BME280;3567;52.444;13.556;2022-10-16T04:01:20;100933.69;;;14.41;100.00
7052;BME280;3567;52.444;13.556;2022-10-16T04:03:45;100947.97;;;14.41;100.00
7052;BME280;3567;52.444;13.556;2022-10-16T04:06:11;100944.47;;;14.41;100.00
7052;BME280;3567;52.444;13.556;2022-10-16T04:08:36;100946.59;;;14.39;100.00
7052;BME280;3567;52.444;13.556;2022-10-16T04:11:02;100957.38;;;14.39;100.00
7052;BME280;3567;52.444;13.556;2022-10-16T04:13:28;100967.34;;;14.38;100.00
7052;BME280;3567;52.444;13.556;2022-10-16T04:15:54;100958.69;;;14.36;100.00
7052;BME280;3567;52.444;13.556;2022-10-16T04:18:19;100962.44;;;14.35;100.00
7052;BME280;3567;52.444;13.556;2022-10-16T04:20:44;100960.00;;;14.34;100.00
7052;BME280;3567;52.444;13.556;2022-10-16T04:23:10;100963.78;;;14.33;100.00
7052;BME280;3567;52.444;13.556;2022-10-16T04:25:35;100974.78;;;14.31;100.00
7052;BME280;3567;52.444;13.556;2022-10-16T04:28:01;100960.50;;;14.31;100.00
7052;BME280;3567;52.444;13.556;2022-10-16T04:30:26;100965.88;;;14.31;100.00
7052;BME280;3567;52.444;13.556;2022-10-16T04:32:52;100975.03;;;14.30;100.00
7052;BME280;3567;52.444;13.556;2022-10-16T04:35:18;100959.94;;;14.29;100.00
7052;BME280;3567;52.444;13.556;2022-10-16T04:37:44;100961.00;;;14.28;100.00
7052;BME280;3567;52.444;13.556;2022-10-16T04:40:10;100949.38;;;14.27;100.00
7052;BME280;3567;52.444;13.556;2022-10-16T04:42:35;100944.50;;;14.24;100.00
7052;BME280;3567;52.444;13.556;2022-10-16T04:45:01;100937.97;;;14.20;100.00
7052;BME280;3567;52.444;13.556;2022-10-16T04:47:26;100937.41;;;14.18;100.00
7052;BME280;3567;52.444;13.556;2022-10-16T04:49:52;100937.09;;;14.14;100.00
7052;BME280;3567;52.444;13.556;2022-10-16T04:52:17;100935.72;;;14.12;100.00
7052;BME280;3567;52.444;13.556;2022-10-16T04:54:44;100952.34;;;14.09;100.00
7052;BME280;3567;52.444;13.556;2022-10-16T04:57:10;100952.03;;;14.05;100.00
7052;BME280;3567;52.444;13.556;2022-10-16T04:59:36;100954.16;;;14.03;100.00
7052;BME280;3567;52.444;13.556;2022-10-16T05:02:01;100953.00;;;13.99;100.00
7052;BME280;3567;52.444;13.556;2022-10-16T05:04:26;100947.06;;;13.97;100.00
7052;BME280;3567;52.444;13.556;2022-10-16T05:06:52;100946.41;;;13.90;100.00
7052;BME280;3567;52.444;13.556;2022-10-16T05:09:17;100960.38;;;13.87;100.00
7052;BME280;3567;52.444;13.556;2022-10-16T05:11:42;100970.81;;;13.83;100.00
7052;BME280;3567;52.444;13.556;2022-10-16T05:14:08;100975.88;;;13.80;100.00
7052;BME280;3567;52.444;13.556;2022-10-16T05:16:33;100985.25;;;13.77;100.00
7052;BME280;3567;52.444;13.556;2022-10-16T05:18:59;101000.25;;;13.73;100.00
7052;BME280;3567;52.444;13.556;2022-10-16T05:21:24;100993.97;;;13.68;100.00
7052;BME280;3567;52.444;13.556;2022-10-16T05:23:50;100995.53;;;13.63;100.00
7052;BME280;3567;52.444;13.556;2022-10-16T05:26:15;101004.88;;;13.61;100.00
7052;BME280;3567;52.444;13.556;2022-10-16T05:28:40;100999.75;;;13.59;100.00
7052;BME280;3567;52.444;13.556;2022-10-16T05:31:09;100999.50;;;13.61;100.00
7052;BME280;3567;52.444;13.556;2022-10-16T05:33:35;100998.69;;;13.60;100.00
7052;BME280;3567;52.444;13.556;2022-10-16T05:36:03;100995.44;;;13.58;100.00
7052;BME280;3567;52.444;13.556;2022-10-16T05:38:28;100982.44;;;13.55;100.00
7052;BME280;3567;52.444;13.556;2022-10-16T05:40:54;100978.13;;;13.54;100.00
7052;BME280;3567;52.444;13.556;2022-10-16T05:43:20;100985.59;;;13.52;100.00
7052;BME280;3567;52.444;13.556;2022-10-16T05:46:13;100981.88;;;13.53;100.00
7052;BME280;3567;52.444;13.556;2022-10-16T05:48:38;100987.56;;;13.57;100.00
7052;BME280;3567;52.444;13.556;2022-10-16T05:51:07;100993.22;;;13.55;100.00
7052;BME280;3567;52.444;13.556;2022-10-16T05:53:34;101003.41;;;13.53;100.00
7052;BME280;3567;52.444;13.556;2022-10-16T05:56:00;101011.97;;;13.50;100.00
7052;BME280;3567;52.444;13.556;2022-10-16T05:58:29;101011.72;;;13.52;100.00
7052;BME280;3567;52.444;13.556;2022-10-16T06:00:57;101008.19;;;13.51;100.00
7052;BME280;3567;52.444;13.556;2022-10-16T06:03:23;101004.44;;;13.52;100.00
7052;BME280;3567;52.444;13.556;2022-10-16T06:05:48;101005.03;;;13.54;100.00
7052;BME280;3567;52.444;13.556;2022-10-16T06:08:14;101006.19;;;13.58;100.00
7052;BME280;3567;52.444;13.556;2022-10-16T06:10:39;101007.31;;;13.62;100.00
7052;BME280;3567;52.444;13.556;2022-10-16T06:13:05;101011.16;;;13.67;100.00
7052;BME280;3567;52.444;13.556;2022-10-16T06:15:30;101012.88;;;13.73;100.00
7052;BME280;3567;52.444;13.556;2022-10-16T06:17:56;101015.19;;;13.81;100.00
7052;BME280;3567;52.444;13.556;2022-10-16T06:20:21;101021.50;;;13.86;100.00
7052;BME280;3567;52.444;13.556;2022-10-16T06:22:46;101015.94;;;13.93;100.00
7052;BME280;3567;52.444;13.556;2022-10-16T06:25:12;101013.88;;;14.00;100.00
7052;BME280;3567;52.444;13.556;2022-10-16T06:27:39;101020.44;;;14.04;100.00
7052;BME280;3567;52.444;13.556;2022-10-16T06:30:06;101033.16;;;14.09;100.00
7052;BME280;3567;52.444;13.556;2022-10-16T06:32:31;101010.88;;;14.13;100.00
7052;BME280;3567;52.444;13.556;2022-10-16T06:34:57;101023.38;;;14.20;100.00
7052;BME280;3567;52.444;13.556;2022-10-16T06:37:22;101022.66;;;14.24;100.00
7052;BME280;3567;52.444;13.556;2022-10-16T06:39:47;101025.66;;;14.28;100.00
7052;BME280;3567;52.444;13.556;2022-10-16T06:42:13;101030.56;;;14.31;100.00
7052;BME280;3567;52.444;13.556;2022-10-16T06:44:38;101042.47;;;14.35;100.00
7052;BME280;3567;52.444;13.556;2022-10-16T06:47:03;101040.34;;;14.37;100.00
7052;BME280;3567;52.444;13.556;2022-10-16T06:49:29;101044.44;;;14.39;100.00
7052;BME280;3567;52.444;13.556;2022-10-16T06:51:54;101059.88;;;14.44;100.00
7052;BME280;3567;52.444;13.556;2022-10-16T06:54:20;101062.09;;;14.47;100.00
7052;BME280;3567;52.444;13.556;2022-10-16T06:56:45;101061.63;;;14.50;100.00
7052;BME280;3567;52.444;13.556;2022-10-16T06:59:11;101062.75;;;14.54;100.00
7052;BME280;3567;52.444;13.556;2022-10-16T07:01:36;101069.28;;;14.58;100.00
7052;BME280;3567;52.444;13.556;2022-10-16T07:04:02;101067.72;;;14.62;100.00
7052;BME280;3567;52.444;13.556;2022-10-16T07:06:31;101064.03;;;14.68;100.00
7052;BME280;3567;52.444;13.556;2022-10-16T07:08:56;101065.72;;;14.75;100.00
7052;BME280;3567;52.444;13.556;2022-10-16T07:11:23;101064.75;;;14.81;100.00
7052;BME280;3567;52.444;13.556;2022-10-16T07:13:49;101072.16;;;14.90;100.00
7052;BME280;3567;52.444;13.556;2022-10-16T07:16:20;101074.19;;;15.00;100.00
7052;BME280;3567;52.444;13.556;2022-10-16T07:18:46;101084.84;;;15.12;100.00
7052;BME280;3567;52.444;13.556;2022-10-16T07:21:15;101108.25;;;15.28;100.00
7052;BME280;3567;52.444;13.556;2022-10-16T07:23:42;101103.94;;;15.49;100.00
7052;BME280;3567;52.444;13.556;2022-10-16T07:26:08;101081.53;;;15.70;100.00
7052;BME280;3567;52.444;13.556;2022-10-16T07:28:34;101086.59;;;15.89;100.00
7052;BME280;3567;52.444;13.556;2022-10-16T07:31:03;101090.81;;;16.07;100.00
7052;BME280;3567;52.444;13.556;2022-10-16T07:33:30;101097.47;;;16.26;100.00
7052;BME280;3567;52.444;13.556;2022-10-16T07:35:55;101096.22;;;16.39;100.00
7052;BME280;3567;52.444;13.556;2022-10-16T07:38:21;101107.69;;;16.56;100.00
7052;BME280;3567;52.444;13.556;2022-10-16T07:40:47;101106.25;;;16.75;100.00
7052;BME280;3567;52.444;13.556;2022-10-16T07:43:13;101085.81;;;16.95;100.00
7052;BME280;3567;52.444;13.556;2022-10-16T07:45:46;101089.38;;;17.06;100.00
7052;BME280;3567;52.444;13.556;2022-10-16T07:48:12;101101.56;;;17.08;100.00
7052;BME280;3567;52.444;13.556;2022-10-16T07:50:37;101097.22;;;17.07;100.00
7052;BME280;3567;52.444;13.556;2022-10-16T07:53:03;101096.09;;;16.98;100.00
7052;BME280;3567;52.444;13.556;2022-10-16T07:55:29;101109.31;;;16.89;100.00
7052;BME280;3567;52.444;13.556;2022-10-16T07:57:54;101101.16;;;16.84;100.00
7052;BME280;3567;52.444;13.556;2022-10-16T08:00:20;101096.28;;;16.81;100.00
7052;BME280;3567;52.444;13.556;2022-10-16T08:02:45;101099.25;;;16.80;100.00
7052;BME280;3567;52.444;13.556;2022-10-16T08:05:10;101087.84;;;16.77;100.00
7052;BME280;3567;52.444;13.556;2022-10-16T08:07:36;101097.06;;;16.76;100.00
7052;BME280;3567;52.444;13.556;2022-10-16T08:10:01;101104.94;;;16.78;100.00
7052;BME280;3567;52.444;13.556;2022-10-16T08:12:27;101102.75;;;16.80;100.00
7052;BME280;3567;52.444;13.556;2022-10-16T08:14:53;101105.78;;;16.84;100.00
7052;BME280;3567;52.444;13.556;2022-10-16T08:17:18;101115.25;;;16.86;100.00
7052;BME280;3567;52.444;13.556;2022-10-16T08:19:45;101128.00;;;16.91;100.00
7052;BME280;3567;52.444;13.556;2022-10-16T08:22:10;101130.72;;;16.96;100.00
7052;BME280;3567;52.444;13.556;2022-10-16T08:24:36;101134.78;;;16.98;100.00
7052;BME280;3567;52.444;13.556;2022-10-16T08:27:02;101130.19;;;16.99;100.00
7052;BME280;3567;52.444;13.556;2022-10-16T08:29:28;101114.25;;;17.02;100.00
7052;BME280;3567;52.444;13.556;2022-10-16T08:31:53;101127.00;;;17.07;100.00
7052;BME280;3567;52.444;13.556;2022-10-16T08:34:18;101131.94;;;17.15;100.00
7052;BME280;3567;52.444;13.556;2022-10-16T08:36:44;101131.97;;;17.25;100.00
7052;BME280;3567;52.444;13.556;2022-10-16T08:39:09;101126.63;;;17.41;100.00
7052;BME280;3567;52.444;13.556;2022-10-16T08:44:20;101138.66;;;17.70;100.00
7052;BME280;3567;52.444;13.556;2022-10-16T08:47:20;101136.53;;;17.77;100.00
7052;BME280;3567;52.444;13.556;2022-10-16T08:50:00;101128.44;;;17.83;99.40
7052;BME280;3567;52.444;13.556;2022-10-16T08:52:32;101125.44;;;17.84;99.46
7052;BME280;3567;52.444;13.556;2022-10-16T08:55:01;101125.72;;;17.88;99.52
7052;BME280;3567;52.444;13.556;2022-10-16T08:57:27;101139.28;;;17.88;98.78
7052;BME280;3567;52.444;13.556;2022-10-16T08:59:53;101143.34;;;17.85;98.65
7052;BME280;3567;52.444;13.556;2022-10-16T09:02:26;101146.31;;;17.84;97.61
7052;BME280;3567;52.444;13.556;2022-10-16T09:05:22;101143.03;;;17.76;97.14
7052;BME280;3567;52.444;13.556;2022-10-16T09:11:22;101158.75;;;17.74;97.10
7052;BME280;3567;52.444;13.556;2022-10-16T09:16:28;101160.50;;;18.37;96.34
7052;BME280;3567;52.444;13.556;2022-10-16T09:21:34;101174.94;;;18.78;93.46
7052;BME280;3567;52.444;13.556;2022-10-16T09:26:36;101178.16;;;18.95;91.85
7052;BME280;3567;52.444;13.556;2022-10-16T09:29:02;101180.53;;;19.22;91.29
7052;BME280;3567;52.444;13.556;2022-10-16T09:31:27;101175.06;;;19.43;90.79
7052;BME280;3567;52.444;13.556;2022-10-16T09:33:55;101174.25;;;19.42;90.24
7052;BME280;3567;52.444;13.556;2022-10-16T09:36:23;101175.66;;;19.34;89.08
7052;BME280;3567;52.444;13.556;2022-10-16T09:39:04;101168.03;;;19.31;88.67
7052;BME280;3567;52.444;13.556;2022-10-16T09:41:30;101177.19;;;19.56;89.36
7052;BME280;3567;52.444;13.556;2022-10-16T09:44:01;101174.31;;;19.92;86.71
7052;BME280;3567;52.444;13.556;2022-10-16T09:46:34;101183.03;;;19.94;84.49
7052;BME280;3567;52.444;13.556;2022-10-16T09:49:03;101185.75;;;19.94;85.65
7052;BME280;3567;52.444;13.556;2022-10-16T09:56:27;101188.69;;;21.39;80.48
7052;BME280;3567;52.444;13.556;2022-10-16T09:58:56;101197.22;;;21.32;79.83
7052;BME280;3567;52.444;13.556;2022-10-16T10:01:28;101196.34;;;21.08;79.55
7052;BME280;3567;52.444;13.556;2022-10-16T10:03:56;101196.59;;;20.77;81.07
7052;BME280;3567;52.444;13.556;2022-10-16T10:06:29;101199.75;;;20.60;81.34
7052;BME280;3567;52.444;13.556;2022-10-16T10:09:25;101208.09;;;20.74;79.01
7052;BME280;3567;52.444;13.556;2022-10-16T10:11:54;101218.59;;;20.86;79.61
7052;BME280;3567;52.444;13.556;2022-10-16T10:14:26;101216.78;;;20.76;78.88
7052;BME280;3567;52.444;13.556;2022-10-16T10:19:38;101214.69;;;20.68;79.83
7052;BME280;3567;52.444;13.556;2022-10-16T10:33:28;101224.97;;;20.71;79.65
7052;BME280;3567;52.444;13.556;2022-10-16T10:38:54;101224.63;;;20.38;79.80
7052;BME280;3567;52.444;13.556;2022-10-16T10:44:09;101227.03;;;20.45;79.13
7052;BME280;3567;52.444;13.556;2022-10-16T10:46:57;101227.03;;;20.45;76.84
7052;BME280;3567;52.444;13.556;2022-10-16T10:54:58;101242.38;;;20.31;76.83
7052;BME280;3567;52.444;13.556;2022-10-16T11:00:22;101234.31;;;20.60;76.44
7052;BME280;3567;52.444;13.556;2022-10-16T11:02:59;101240.00;;;20.98;75.46
7052;BME280;3567;52.444;13.556;2022-10-16T11:05:38;101239.84;;;21.47;73.99
7052;BME280;3567;52.444;13.556;2022-10-16T11:08:35;101233.50;;;21.76;70.81
7052;BME280;3567;52.444;13.556;2022-10-16T11:14:34;101235.38;;;21.80;71.07
7052;BME280;3567;52.444;13.556;2022-10-16T11:19:31;101227.91;;;22.47;69.09
7052;BME280;3567;52.444;13.556;2022-10-16T11:24:53;101249.50;;;23.74;64.90
7052;BME280;3567;52.444;13.556;2022-10-16T11:27:44;101242.78;;;23.81;61.85
7052;BME280;3567;52.444;13.556;2022-10-16T11:30:22;101241.97;;;23.80;61.84
7052;BME280;3567;52.444;13.556;2022-10-16T11:35:54;101242.50;;;23.55;62.85
7052;BME280;3567;52.444;13.556;2022-10-16T11:38:39;101234.47;;;23.44;60.43
7052;BME280;3567;52.444;13.556;2022-10-16T11:41:18;101243.69;;;22.88;62.68
7052;BME280;3567;52.444;13.556;2022-10-16T11:49:36;101231.59;;;22.19;65.49
7052;BME280;3567;52.444;13.556;2022-10-16T11:52:19;101237.75;;;22.11;66.01
7052;BME280;3567;52.444;13.556;2022-10-16T11:54:56;101240.63;;;22.38;65.41
7052;BME280;3567;52.444;13.556;2022-10-16T11:57:27;101241.22;;;22.87;62.37
7052;BME280;3567;52.444;13.556;2022-10-16T11:59:58;101237.50;;;23.29;61.84
7052;BME280;3567;52.444;13.556;2022-10-16T12:08:08;101249.84;;;23.26;59.65
7052;BME280;3567;52.444;13.556;2022-10-16T12:10:35;101251.03;;;23.07;60.39
7052;BME280;3567;52.444;13.556;2022-10-16T12:15:47;101254.75;;;23.11;59.50
7052;BME280;3567;52.444;13.556;2022-10-16T12:18:23;101259.81;;;23.04;59.13
7052;BME280;3567;52.444;13.556;2022-10-16T12:20:56;101260.16;;;22.64;60.20
7052;BME280;3567;52.444;13.556;2022-10-16T12:23:30;101265.75;;;22.35;61.29
7052;BME280;3567;52.444;13.556;2022-10-16T12:26:00;101255.94;;;22.34;60.50
7052;BME280;3567;52.444;13.556;2022-10-16T12:28:32;101253.78;;;22.69;60.46
7052;BME280;3567;52.444;13.556;2022-10-16T12:31:00;101264.13;;;23.37;59.13
7052;BME280;3567;52.444;13.556;2022-10-16T12:33:29;101258.00;;;23.87;55.88
7052;BME280;3567;52.444;13.556;2022-10-16T12:35:55;101269.94;;;23.91;54.93
7052;BME280;3567;52.444;13.556;2022-10-16T12:46:19;101265.22;;;22.90;56.81
7052;BME280;3567;52.444;13.556;2022-10-16T12:48:45;101274.53;;;22.70;57.91
7052;BME280;3567;52.444;13.556;2022-10-16T12:57:09;101278.00;;;22.57;57.00
7052;BME280;3567;52.444;13.556;2022-10-16T13:03:01;101282.50;;;22.47;58.14
7052;BME280;3567;52.444;13.556;2022-10-16T13:08:48;101286.91;;;22.25;59.44
7052;BME280;3567;52.444;13.556;2022-10-16T13:20:28;101294.19;;;23.37;55.69
7052;BME280;3567;52.444;13.556;2022-10-16T13:28:17;101313.34;;;22.29;58.08
7052;BME280;3567;52.444;13.556;2022-10-16T13:30:52;101311.00;;;21.93;58.49
7052;BME280;3567;52.444;13.556;2022-10-16T13:33:19;101319.56;;;21.63;60.09
7052;BME280;3567;52.444;13.556;2022-10-16T13:35:51;101325.81;;;21.34;61.24
7052;BME280;3567;52.444;13.556;2022-10-16T13:38:23;101332.34;;;21.33;61.76
7052;BME280;3567;52.444;13.556;2022-10-16T13:43:23;101334.50;;;21.65;61.60
7052;BME280;3567;52.444;13.556;2022-10-16T13:45:58;101334.34;;;22.05;60.81
7052;BME280;3567;52.444;13.556;2022-10-16T13:48:24;101336.25;;;22.04;59.27
7052;BME280;3567;52.444;13.556;2022-10-16T13:51:21;101332.88;;;21.88;59.46
7052;BME280;3567;52.444;13.556;2022-10-16T13:53:47;101333.19;;;21.63;59.53
7052;BME280;3567;52.444;13.556;2022-10-16T13:56:18;101337.19;;;21.41;59.95
7052;BME280;3567;52.444;13.556;2022-10-16T13:58:44;101332.06;;;21.35;60.28
7052;BME280;3567;52.444;13.556;2022-10-16T14:01:30;101334.53;;;21.36;60.44
7052;BME280;3567;52.444;13.556;2022-10-16T14:04:05;101339.44;;;21.34;60.49
7052;BME280;3567;52.444;13.556;2022-10-16T14:06:32;101337.00;;;21.28;61.69
7052;BME280;3567;52.444;13.556;2022-10-16T14:09:01;101335.94;;;21.24;61.65
7052;BME280;3567;52.444;13.556;2022-10-16T14:11:30;101340.28;;;21.25;61.97
7052;BME280;3567;52.444;13.556;2022-10-16T14:13:55;101337.34;;;21.21;61.68
7052;BME280;3567;52.444;13.556;2022-10-16T14:16:25;101340.66;;;21.13;61.14
7052;BME280;3567;52.444;13.556;2022-10-16T14:21:22;101355.25;;;20.93;62.19
7052;BME280;3567;52.444;13.556;2022-10-16T14:23:47;101352.84;;;20.86;63.14
7052;BME280;3567;52.444;13.556;2022-10-16T14:26:15;101360.50;;;20.84;63.35
7052;BME280;3567;52.444;13.556;2022-10-16T14:28:42;101356.41;;;20.82;63.11
7052;BME280;3567;52.444;13.556;2022-10-16T14:31:27;101354.84;;;20.71;63.15
7052;BME280;3567;52.444;13.556;2022-10-16T14:33:53;101365.78;;;20.60;63.92
7052;BME280;3567;52.444;13.556;2022-10-16T14:36:19;101359.84;;;20.53;64.83
7052;BME280;3567;52.444;13.556;2022-10-16T14:41:15;101364.78;;;20.36;65.65
7052;BME280;3567;52.444;13.556;2022-10-16T14:43:42;101367.84;;;20.24;65.57
7052;BME280;3567;52.444;13.556;2022-10-16T14:46:16;101364.88;;;20.15;66.35
7052;BME280;3567;52.444;13.556;2022-10-16T14:48:44;101366.25;;;20.08;67.47
7052;BME280;3567;52.444;13.556;2022-10-16T14:51:15;101369.53;;;20.00;67.14
7052;BME280;3567;52.444;13.556;2022-10-16T14:53:40;101370.38;;;19.95;67.17
7052;BME280;3567;52.444;13.556;2022-10-16T14:56:08;101376.09;;;19.94;66.65
7052;BME280;3567;52.444;13.556;2022-10-16T14:58:34;101375.53;;;19.92;67.75
7052;BME280;3567;52.444;13.556;2022-10-16T15:01:00;101381.25;;;19.85;67.17
7052;BME280;3567;52.444;13.556;2022-10-16T15:03:25;101382.63;;;19.82;67.95
7052;BME280;3567;52.444;13.556;2022-10-16T15:05:50;101381.84;;;19.77;67.90
7052;BME280;3567;52.444;13.556;2022-10-16T15:08:16;101376.66;;;19.75;68.38